sensor_id;sensor_type;location;lat;lon;timestamp;pressure;altitude;pressure_sealevel;temperature;humidity
48926;BME280;39838;59.938;30.642;2023-04-16T00:02:10;102084.78;;;4.31;35.94
48926;BME280;39838;59.938;30.642;2023-04-16T00:04:38;102088.16;;;4.30;35.67
48926;BME280;39838;59.938;30.642;2023-04-16T00:07:05;102086.41;;;4.29;36.26
48926;BME280;39838;59.938;30.642;2023-04-16T00:09:32;102085.59;;;4.30;36.24
48926;BME280;39838;59.938;30.642;2023-04-16T00:11:59;102079.63;;;4.31;35.95
48926;BME280;39838;59.938;30.642;2023-04-16T00:14:28;102080.50;;;4.32;35.99
48926;BME280;39838;59.938;30.642;2023-04-16T00:16:55;102072.84;;;4.33;36.06
48926;BME280;39838;59.938;30.642;2023-04-16T00:19:22;102076.19;;;4.31;35.84
48926;BME280;39838;59.938;30.642;2023-04-16T00:21:49;102067.50;;;4.29;36.20
48926;BME280;39838;59.938;30.642;2023-04-16T00:24:16;102057.91;;;4.26;36.04
48926;BME280;39838;59.938;30.642;2023-04-16T00:26:44;102066.38;;;4.24;36.20
48926;BME280;39838;59.938;30.642;2023-04-16T00:29:11;102068.72;;;4.19;36.49
48926;BME280;39838;59.938;30.642;2023-04-16T00:31:39;102070.34;;;4.17;36.26
48926;BME280;39838;59.938;30.642;2023-04-16T00:34:06;102064.31;;;4.17;36.36
48926;BME280;39838;59.938;30.642;2023-04-16T00:36:33;102063.44;;;4.16;36.36
48926;BME280;39838;59.938;30.642;2023-04-16T00:39:01;102061.41;;;4.10;36.39
48926;BME280;39838;59.938;30.642;2023-04-16T00:41:46;102056.03;;;4.06;36.43
48926;BME280;39838;59.938;30.642;2023-04-16T00:44:14;102063.84;;;4.07;36.26
48926;BME280;39838;59.938;30.642;2023-04-16T00:46:43;102057.00;;;4.08;36.51
48926;BME280;39838;59.938;30.642;2023-04-16T00:49:11;102071.63;;;4.09;36.47
48926;BME280;39838;59.938;30.642;2023-04-16T00:51:38;102062.09;;;4.06;36.50
48926;BME280;39838;59.938;30.642;2023-04-16T00:54:05;102066.41;;;4.07;37.01
48926;BME280;39838;59.938;30.642;2023-04-16T00:56:34;102061.91;;;4.03;36.35
48926;BME280;39838;59.938;30.642;2023-04-16T00:59:02;102071.47;;;4.06;36.67
48926;BME280;39838;59.938;30.642;2023-04-16T01:01:30;102068.00;;;4.05;36.63
48926;BME280;39838;59.938;30.642;2023-04-16T01:03:58;102059.41;;;4.05;36.90
48926;BME280;39838;59.938;30.642;2023-04-16T01:06:25;102064.56;;;4.05;36.63
48926;BME280;39838;59.938;30.642;2023-04-16T01:08:53;102061.28;;;4.07;36.70
48926;BME280;39838;59.938;30.642;2023-04-16T01:11:20;102058.59;;;4.06;36.53
48926;BME280;39838;59.938;30.642;2023-04-16T01:13:47;102061.91;;;4.03;36.42
48926;BME280;39838;59.938;30.642;2023-04-16T01:16:14;102059.34;;;4.03;36.61
48926;BME280;39838;59.938;30.642;2023-04-16T01:18:41;102058.38;;;4.01;36.45
48926;BME280;39838;59.938;30.642;2023-04-16T01:21:10;102058.22;;;3.98;36.73
48926;BME280;39838;59.938;30.642;2023-04-16T01:23:37;102059.19;;;4.00;36.84
48926;BME280;39838;59.938;30.642;2023-04-16T01:26:04;102057.34;;;3.98;36.63
48926;BME280;39838;59.938;30.642;2023-04-16T01:28:31;102059.69;;;3.93;36.50
48926;BME280;39838;59.938;30.642;2023-04-16T01:30:58;102058.72;;;3.91;36.87
48926;BME280;39838;59.938;30.642;2023-04-16T01:33:25;102057.56;;;3.86;36.76
48926;BME280;39838;59.938;30.642;2023-04-16T01:35:53;102053.03;;;3.80;37.16
48926;BME280;39838;59.938;30.642;2023-04-16T01:38:21;102053.59;;;3.75;37.08
48926;BME280;39838;59.938;30.642;2023-04-16T01:40:48;102054.06;;;3.68;37.16
48926;BME280;39838;59.938;30.642;2023-04-16T01:43:16;102044.19;;;3.59;37.11
48926;BME280;39838;59.938;30.642;2023-04-16T01:45:43;102053.41;;;3.55;37.20
48926;BME280;39838;59.938;30.642;2023-04-16T01:48:10;102045.47;;;3.51;37.36
48926;BME280;39838;59.938;30.642;2023-04-16T01:50:37;102046.13;;;3.47;37.32
48926;BME280;39838;59.938;30.642;2023-04-16T01:53:04;102045.94;;;3.44;37.55
48926;BME280;39838;59.938;30.642;2023-04-16T01:55:33;102048.44;;;3.42;37.49
48926;BME280;39838;59.938;30.642;2023-04-16T01:58:00;102045.78;;;3.41;37.63
48926;BME280;39838;59.938;30.642;2023-04-16T02:00:27;102044.72;;;3.37;37.66
48926;BME280;39838;59.938;30.642;2023-04-16T02:02:55;102035.31;;;3.38;37.59
48926;BME280;39838;59.938;30.642;2023-04-16T02:05:22;102030.19;;;3.38;37.67
48926;BME280;39838;59.938;30.642;2023-04-16T02:07:49;102031.97;;;3.39;37.79
48926;BME280;39838;59.938;30.642;2023-04-16T02:10:16;102037.13;;;3.39;37.59
48926;BME280;39838;59.938;30.642;2023-04-16T02:12:47;102033.56;;;3.37;37.76
48926;BME280;39838;59.938;30.642;2023-04-16T02:15:15;102031.00;;;3.37;37.72
48926;BME280;39838;59.938;30.642;2023-04-16T02:17:43;102034.44;;;3.37;37.78
48926;BME280;39838;59.938;30.642;2023-04-16T02:20:11;102027.63;;;3.38;37.64
48926;BME280;39838;59.938;30.642;2023-04-16T02:22:38;102026.91;;;3.40;37.75
48926;BME280;39838;59.938;30.642;2023-04-16T02:25:06;102025.38;;;3.44;37.82
48926;BME280;39838;59.938;30.642;2023-04-16T02:27:33;102030.59;;;3.45;37.80
48926;BME280;39838;59.938;30.642;2023-04-16T02:30:03;102030.59;;;3.45;37.65
48926;BME280;39838;59.938;30.642;2023-04-16T02:32:30;102029.97;;;3.49;37.54
48926;BME280;39838;59.938;30.642;2023-04-16T02:34:58;102026.59;;;3.50;37.79
48926;BME280;39838;59.938;30.642;2023-04-16T02:37:25;102030.03;;;3.51;37.75
48926;BME280;39838;59.938;30.642;2023-04-16T02:39:52;102016.38;;;3.52;38.02
48926;BME280;39838;59.938;30.642;2023-04-16T02:42:19;102029.41;;;3.55;37.60
48926;BME280;39838;59.938;30.642;2023-04-16T02:44:47;102023.47;;;3.56;37.47
48926;BME280;39838;59.938;30.642;2023-04-16T02:47:15;102024.09;;;3.52;37.83
48926;BME280;39838;59.938;30.642;2023-04-16T02:49:42;102021.44;;;3.50;37.54
48926;BME280;39838;59.938;30.642;2023-04-16T02:52:09;102023.06;;;3.48;37.86
48926;BME280;39838;59.938;30.642;2023-04-16T02:54:36;102029.81;;;3.46;37.85
48926;BME280;39838;59.938;30.642;2023-04-16T02:57:04;102028.13;;;3.47;37.88
48926;BME280;39838;59.938;30.642;2023-04-16T02:59:31;102021.31;;;3.47;37.76
48926;BME280;39838;59.938;30.642;2023-04-16T03:01:58;102016.31;;;3.50;37.83
48926;BME280;39838;59.938;30.642;2023-04-16T03:04:27;102018.94;;;3.52;37.68
48926;BME280;39838;59.938;30.642;2023-04-16T03:06:54;102024.00;;;3.50;38.18
48926;BME280;39838;59.938;30.642;2023-04-16T03:09:21;102023.13;;;3.50;37.91
48926;BME280;39838;59.938;30.642;2023-04-16T03:11:48;102027.47;;;3.51;37.79
48926;BME280;39838;59.938;30.642;2023-04-16T03:14:15;102024.91;;;3.51;37.86
48926;BME280;39838;59.938;30.642;2023-04-16T03:16:42;102019.59;;;3.48;38.03
48926;BME280;39838;59.938;30.642;2023-04-16T03:19:10;102024.91;;;3.51;38.03
48926;BME280;39838;59.938;30.642;2023-04-16T03:21:38;102022.50;;;3.54;37.96
48926;BME280;39838;59.938;30.642;2023-04-16T03:24:05;102029.34;;;3.53;38.17
48926;BME280;39838;59.938;30.642;2023-04-16T03:26:32;102030.38;;;3.57;38.08
48926;BME280;39838;59.938;30.642;2023-04-16T03:29:00;102022.66;;;3.57;37.97
48926;BME280;39838;59.938;30.642;2023-04-16T03:31:27;102027.78;;;3.57;37.79
48926;BME280;39838;59.938;30.642;2023-04-16T03:33:55;102021.94;;;3.60;38.05
48926;BME280;39838;59.938;30.642;2023-04-16T03:36:22;102014.94;;;3.57;38.05
48926;BME280;39838;59.938;30.642;2023-04-16T03:38:51;102012.56;;;3.60;38.02
48926;BME280;39838;59.938;30.642;2023-04-16T03:41:18;102016.06;;;3.62;38.17
48926;BME280;39838;59.938;30.642;2023-04-16T03:43:45;102011.88;;;3.64;37.99
48926;BME280;39838;59.938;30.642;2023-04-16T03:46:12;102017.34;;;3.70;37.78
48926;BME280;39838;59.938;30.642;2023-04-16T03:48:40;102013.34;;;3.75;38.05
48926;BME280;39838;59.938;30.642;2023-04-16T03:51:07;102009.94;;;3.76;38.00
48926;BME280;39838;59.938;30.642;2023-04-16T03:53:34;102014.22;;;3.76;38.13
48926;BME280;39838;59.938;30.642;2023-04-16T03:56:03;102009.16;;;3.77;37.94
48926;BME280;39838;59.938;30.642;2023-04-16T03:58:30;102002.50;;;3.81;37.47
48926;BME280;39838;59.938;30.642;2023-04-16T04:00:57;102004.50;;;3.87;37.99
48926;BME280;39838;59.938;30.642;2023-04-16T04:03:25;102008.34;;;3.95;37.77
48926;BME280;39838;59.938;30.642;2023-04-16T04:05:52;102005.19;;;4.00;37.67
48926;BME280;39838;59.938;30.642;2023-04-16T04:08:19;102004.44;;;4.03;37.68
48926;BME280;39838;59.938;30.642;2023-04-16T04:10:46;102003.00;;;4.08;37.55
48926;BME280;39838;59.938;30.642;2023-04-16T04:13:15;102004.91;;;4.12;37.72
48926;BME280;39838;59.938;30.642;2023-04-16T04:15:43;101994.47;;;4.09;37.95
48926;BME280;39838;59.938;30.642;2023-04-16T04:18:10;101990.81;;;4.22;37.47
48926;BME280;39838;59.938;30.642;2023-04-16T04:20:38;101977.16;;;4.23;37.71
48926;BME280;39838;59.938;30.642;2023-04-16T04:23:05;101990.53;;;4.33;37.33
48926;BME280;39838;59.938;30.642;2023-04-16T04:25:33;101987.28;;;4.37;36.93
48926;BME280;39838;59.938;30.642;2023-04-16T04:28:00;101991.00;;;4.43;37.32
48926;BME280;39838;59.938;30.642;2023-04-16T04:30:29;101977.59;;;4.50;36.91
48926;BME280;39838;59.938;30.642;2023-04-16T04:32:56;101982.88;;;4.53;36.88
48926;BME280;39838;59.938;30.642;2023-04-16T04:35:24;101977.22;;;4.60;37.33
48926;BME280;39838;59.938;30.642;2023-04-16T04:37:51;101960.59;;;4.53;36.75
48926;BME280;39838;59.938;30.642;2023-04-16T04:40:18;101974.50;;;4.75;36.81
48926;BME280;39838;59.938;30.642;2023-04-16T04:42:46;101982.06;;;4.89;37.02
48926;BME280;39838;59.938;30.642;2023-04-16T04:45:13;101980.72;;;4.98;36.94
48926;BME280;39838;59.938;30.642;2023-04-16T04:47:43;101983.50;;;5.02;36.87
48926;BME280;39838;59.938;30.642;2023-04-16T04:50:10;101981.28;;;5.10;36.27
48926;BME280;39838;59.938;30.642;2023-04-16T04:52:38;101982.38;;;5.15;36.24
48926;BME280;39838;59.938;30.642;2023-04-16T04:55:05;101979.28;;;5.22;36.68
48926;BME280;39838;59.938;30.642;2023-04-16T04:57:32;101982.25;;;5.31;36.62
48926;BME280;39838;59.938;30.642;2023-04-16T05:00:00;101982.31;;;5.33;35.94
48926;BME280;39838;59.938;30.642;2023-04-16T05:02:31;101981.84;;;5.41;36.10
48926;BME280;39838;59.938;30.642;2023-04-16T05:05:00;101990.13;;;5.54;36.52
48926;BME280;39838;59.938;30.642;2023-04-16T05:07:30;101982.66;;;5.60;35.98
48926;BME280;39838;59.938;30.642;2023-04-16T05:09:57;101978.44;;;5.62;36.20
48926;BME280;39838;59.938;30.642;2023-04-16T05:12:24;101976.06;;;5.66;36.35
48926;BME280;39838;59.938;30.642;2023-04-16T05:14:51;101968.53;;;5.71;35.66
48926;BME280;39838;59.938;30.642;2023-04-16T05:17:18;101966.06;;;5.74;36.31
48926;BME280;39838;59.938;30.642;2023-04-16T05:19:46;101972.31;;;5.79;36.09
48926;BME280;39838;59.938;30.642;2023-04-16T05:22:14;101973.47;;;5.86;35.47
48926;BME280;39838;59.938;30.642;2023-04-16T05:24:44;101970.66;;;6.00;35.26
48926;BME280;39838;59.938;30.642;2023-04-16T05:27:11;101979.88;;;6.15;35.40
48926;BME280;39838;59.938;30.642;2023-04-16T05:29:38;101975.09;;;6.24;35.62
48926;BME280;39838;59.938;30.642;2023-04-16T05:32:05;101979.69;;;6.31;35.20
48926;BME280;39838;59.938;30.642;2023-04-16T05:34:32;101973.88;;;6.37;34.98
48926;BME280;39838;59.938;30.642;2023-04-16T05:37:00;101972.41;;;6.43;35.00
48926;BME280;39838;59.938;30.642;2023-04-16T05:39:28;101967.59;;;6.51;34.61
48926;BME280;39838;59.938;30.642;2023-04-16T05:41:55;101966.75;;;6.52;34.63
48926;BME280;39838;59.938;30.642;2023-04-16T05:44:22;101966.13;;;6.57;34.73
48926;BME280;39838;59.938;30.642;2023-04-16T05:46:50;101961.19;;;6.64;34.49
48926;BME280;39838;59.938;30.642;2023-04-16T05:49:17;101965.84;;;6.72;34.52
48926;BME280;39838;59.938;30.642;2023-04-16T05:51:44;101962.38;;;6.72;34.51
48926;BME280;39838;59.938;30.642;2023-04-16T05:54:12;101960.38;;;6.65;34.59
48926;BME280;39838;59.938;30.642;2023-04-16T05:56:40;101966.72;;;6.73;34.67
48926;BME280;39838;59.938;30.642;2023-04-16T05:59:07;101959.66;;;6.69;34.75
48926;BME280;39838;59.938;30.642;2023-04-16T06:01:35;101960.03;;;6.78;35.07
48926;BME280;39838;59.938;30.642;2023-04-16T06:04:02;101964.97;;;6.94;34.70
48926;BME280;39838;59.938;30.642;2023-04-16T06:06:29;101962.94;;;7.09;34.96
48926;BME280;39838;59.938;30.642;2023-04-16T06:08:56;101949.66;;;7.23;34.51
48926;BME280;39838;59.938;30.642;2023-04-16T06:11:24;101954.88;;;7.24;34.29
48926;BME280;39838;59.938;30.642;2023-04-16T06:13:53;101955.38;;;7.14;34.75
48926;BME280;39838;59.938;30.642;2023-04-16T06:16:20;101956.16;;;7.11;34.60
48926;BME280;39838;59.938;30.642;2023-04-16T06:18:48;101957.69;;;7.06;34.98
48926;BME280;39838;59.938;30.642;2023-04-16T06:21:15;101955.91;;;7.05;34.95
48926;BME280;39838;59.938;30.642;2023-04-16T06:23:42;101951.94;;;7.15;34.83
48926;BME280;39838;59.938;30.642;2023-04-16T06:26:10;101949.28;;;7.36;34.55
48926;BME280;39838;59.938;30.642;2023-04-16T06:28:37;101956.16;;;7.59;34.21
48926;BME280;39838;59.938;30.642;2023-04-16T06:31:05;101947.81;;;7.68;33.91
48926;BME280;39838;59.938;30.642;2023-04-16T06:33:33;101946.22;;;7.72;34.22
48926;BME280;39838;59.938;30.642;2023-04-16T06:36:00;101946.41;;;7.78;33.88
48926;BME280;39838;59.938;30.642;2023-04-16T06:38:27;101944.09;;;7.85;33.85
48926;BME280;39838;59.938;30.642;2023-04-16T06:40:55;101938.38;;;7.94;34.01
48926;BME280;39838;59.938;30.642;2023-04-16T06:43:23;101937.19;;;8.11;33.52
48926;BME280;39838;59.938;30.642;2023-04-16T06:45:50;101932.22;;;8.17;33.65
48926;BME280;39838;59.938;30.642;2023-04-16T06:48:19;101941.19;;;8.27;33.11
48926;BME280;39838;59.938;30.642;2023-04-16T06:50:46;101939.50;;;8.55;33.47
48926;BME280;39838;59.938;30.642;2023-04-16T06:53:13;101934.75;;;8.68;33.08
48926;BME280;39838;59.938;30.642;2023-04-16T06:55:40;101938.97;;;8.66;32.57
48926;BME280;39838;59.938;30.642;2023-04-16T06:58:07;101934.63;;;8.65;32.80
48926;BME280;39838;59.938;30.642;2023-04-16T07:00:34;101940.13;;;8.74;32.46
48926;BME280;39838;59.938;30.642;2023-04-16T07:03:01;101934.41;;;8.86;32.44
48926;BME280;39838;59.938;30.642;2023-04-16T07:05:30;101933.81;;;8.95;32.52
48926;BME280;39838;59.938;30.642;2023-04-16T07:07:58;101932.59;;;9.14;32.70
48926;BME280;39838;59.938;30.642;2023-04-16T07:10:25;101933.91;;;9.28;32.29
48926;BME280;39838;59.938;30.642;2023-04-16T07:12:53;101946.66;;;9.52;32.23
48926;BME280;39838;59.938;30.642;2023-04-16T07:15:20;101940.88;;;9.62;31.53
48926;BME280;39838;59.938;30.642;2023-04-16T07:17:47;101941.03;;;9.68;31.36
48926;BME280;39838;59.938;30.642;2023-04-16T07:20:14;101939.34;;;9.69;31.57
48926;BME280;39838;59.938;30.642;2023-04-16T07:22:43;101939.41;;;9.72;30.93
48926;BME280;39838;59.938;30.642;2023-04-16T07:25:10;101933.72;;;9.87;30.78
48926;BME280;39838;59.938;30.642;2023-04-16T07:27:37;101931.44;;;9.99;30.98
48926;BME280;39838;59.938;30.642;2023-04-16T07:30:06;101930.28;;;10.22;30.96
48926;BME280;39838;59.938;30.642;2023-04-16T07:32:34;101926.25;;;10.33;30.63
48926;BME280;39838;59.938;30.642;2023-04-16T07:35:01;101929.66;;;10.31;29.96
48926;BME280;39838;59.938;30.642;2023-04-16T07:37:29;101924.97;;;10.16;30.76
48926;BME280;39838;59.938;30.642;2023-04-16T07:39:58;101928.44;;;10.17;30.24
48926;BME280;39838;59.938;30.642;2023-04-16T07:42:28;101920.16;;;10.31;30.39
48926;BME280;39838;59.938;30.642;2023-04-16T07:44:55;101910.16;;;10.50;29.76
48926;BME280;39838;59.938;30.642;2023-04-16T07:47:22;101912.41;;;10.72;29.76
48926;BME280;39838;59.938;30.642;2023-04-16T07:49:51;101919.69;;;10.88;29.14
48926;BME280;39838;59.938;30.642;2023-04-16T07:52:18;101917.38;;;11.02;28.94
48926;BME280;39838;59.938;30.642;2023-04-16T07:54:45;101921.06;;;11.12;28.56
48926;BME280;39838;59.938;30.642;2023-04-16T07:57:14;101912.47;;;11.17;28.30
48926;BME280;39838;59.938;30.642;2023-04-16T07:59:41;101918.53;;;11.16;28.33
48926;BME280;39838;59.938;30.642;2023-04-16T08:02:12;101916.53;;;11.03;28.63
48926;BME280;39838;59.938;30.642;2023-04-16T08:04:40;101918.22;;;11.01;28.17
48926;BME280;39838;59.938;30.642;2023-04-16T08:07:08;101915.72;;;11.04;28.67
48926;BME280;39838;59.938;30.642;2023-04-16T08:09:35;101911.28;;;11.02;28.77
48926;BME280;39838;59.938;30.642;2023-04-16T08:12:02;101913.84;;;10.99;28.89
48926;BME280;39838;59.938;30.642;2023-04-16T08:14:31;101914.63;;;10.96;28.68
48926;BME280;39838;59.938;30.642;2023-04-16T08:16:58;101915.47;;;10.93;28.76
48926;BME280;39838;59.938;30.642;2023-04-16T08:19:25;101921.81;;;11.06;28.19
48926;BME280;39838;59.938;30.642;2023-04-16T08:21:52;101914.31;;;11.23;28.32
48926;BME280;39838;59.938;30.642;2023-04-16T08:24:19;101916.91;;;11.21;27.68
48926;BME280;39838;59.938;30.642;2023-04-16T08:26:46;101915.38;;;11.31;27.94
48926;BME280;39838;59.938;30.642;2023-04-16T08:29:13;101919.72;;;11.32;27.76
48926;BME280;39838;59.938;30.642;2023-04-16T08:31:42;101917.97;;;11.31;27.50
48926;BME280;39838;59.938;30.642;2023-04-16T08:34:10;101922.88;;;11.17;27.62
48926;BME280;39838;59.938;30.642;2023-04-16T08:36:37;101910.41;;;11.01;28.16
48926;BME280;39838;59.938;30.642;2023-04-16T08:39:04;101915.59;;;11.00;27.96
48926;BME280;39838;59.938;30.642;2023-04-16T08:41:33;101912.88;;;10.95;27.73
48926;BME280;39838;59.938;30.642;2023-04-16T08:44:05;101910.97;;;10.85;27.84
48926;BME280;39838;59.938;30.642;2023-04-16T08:46:35;101911.09;;;10.91;28.28
48926;BME280;39838;59.938;30.642;2023-04-16T08:49:06;101894.25;;;10.74;28.03
48926;BME280;39838;59.938;30.642;2023-04-16T08:51:34;101917.03;;;10.85;28.19
48926;BME280;39838;59.938;30.642;2023-04-16T08:54:04;101908.56;;;10.96;28.50
48926;BME280;39838;59.938;30.642;2023-04-16T08:56:35;101916.03;;;11.21;28.03
48926;BME280;39838;59.938;30.642;2023-04-16T08:59:03;101909.25;;;11.29;27.61
48926;BME280;39838;59.938;30.642;2023-04-16T09:01:31;101916.28;;;11.35;27.44
48926;BME280;39838;59.938;30.642;2023-04-16T09:03:59;101914.81;;;11.47;27.28
48926;BME280;39838;59.938;30.642;2023-04-16T09:06:28;101918.38;;;11.53;27.23
48926;BME280;39838;59.938;30.642;2023-04-16T09:08:56;101910.72;;;11.60;27.14
48926;BME280;39838;59.938;30.642;2023-04-16T09:11:26;101911.47;;;11.55;27.33
48926;BME280;39838;59.938;30.642;2023-04-16T09:13:53;101911.34;;;11.48;27.46
48926;BME280;39838;59.938;30.642;2023-04-16T09:16:21;101902.56;;;11.43;27.23
48926;BME280;39838;59.938;30.642;2023-04-16T09:18:49;101907.91;;;11.49;27.35
48926;BME280;39838;59.938;30.642;2023-04-16T09:21:18;101888.78;;;11.47;27.40
48926;BME280;39838;59.938;30.642;2023-04-16T09:23:48;101901.31;;;11.70;27.28
48926;BME280;39838;59.938;30.642;2023-04-16T09:26:16;101898.78;;;11.73;27.18
48926;BME280;39838;59.938;30.642;2023-04-16T09:28:45;101888.47;;;11.79;27.41
48926;BME280;39838;59.938;30.642;2023-04-16T09:31:13;101893.16;;;11.98;27.13
48926;BME280;39838;59.938;30.642;2023-04-16T09:33:41;101896.06;;;12.17;27.14
48926;BME280;39838;59.938;30.642;2023-04-16T09:36:09;101896.06;;;12.18;26.81
48926;BME280;39838;59.938;30.642;2023-04-16T09:38:48;101894.53;;;12.31;27.07
48926;BME280;39838;59.938;30.642;2023-04-16T09:41:16;101901.59;;;12.38;26.29
48926;BME280;39838;59.938;30.642;2023-04-16T09:43:53;101897.34;;;12.45;25.74
48926;BME280;39838;59.938;30.642;2023-04-16T09:46:22;101894.06;;;12.58;25.36
48926;BME280;39838;59.938;30.642;2023-04-16T09:48:49;101885.56;;;12.73;25.38
48926;BME280;39838;59.938;30.642;2023-04-16T09:51:16;101887.44;;;12.81;25.10
48926;BME280;39838;59.938;30.642;2023-04-16T09:53:43;101887.38;;;12.77;25.09
48926;BME280;39838;59.938;30.642;2023-04-16T09:56:12;101890.91;;;12.82;25.00
48926;BME280;39838;59.938;30.642;2023-04-16T09:58:39;101901.34;;;12.82;25.13
48926;BME280;39838;59.938;30.642;2023-04-16T10:01:08;101895.19;;;12.75;24.92
48926;BME280;39838;59.938;30.642;2023-04-16T10:03:37;101889.88;;;12.69;24.98
48926;BME280;39838;59.938;30.642;2023-04-16T10:06:13;101894.13;;;12.63;25.04
48926;BME280;39838;59.938;30.642;2023-04-16T10:08:42;101890.84;;;12.77;25.11
48926;BME280;39838;59.938;30.642;2023-04-16T10:11:10;101894.31;;;12.75;24.78
48926;BME280;39838;59.938;30.642;2023-04-16T10:13:38;101888.16;;;12.73;24.84
48926;BME280;39838;59.938;30.642;2023-04-16T10:16:07;101880.34;;;12.73;24.54
48926;BME280;39838;59.938;30.642;2023-04-16T10:18:35;101892.50;;;12.72;24.80
48926;BME280;39838;59.938;30.642;2023-04-16T10:21:03;101883.94;;;12.81;24.67
48926;BME280;39838;59.938;30.642;2023-04-16T10:23:31;101898.19;;;13.07;24.58
48926;BME280;39838;59.938;30.642;2023-04-16T10:26:00;101883.56;;;13.20;24.00
48926;BME280;39838;59.938;30.642;2023-04-16T10:28:27;101885.44;;;13.32;24.46
48926;BME280;39838;59.938;30.642;2023-04-16T10:30:57;101893.94;;;13.14;24.34
48926;BME280;39838;59.938;30.642;2023-04-16T10:33:27;101890.22;;;12.95;24.49
48926;BME280;39838;59.938;30.642;2023-04-16T10:36:06;101890.94;;;12.85;24.35
48926;BME280;39838;59.938;30.642;2023-04-16T10:38:37;101880.56;;;12.88;24.52
48926;BME280;39838;59.938;30.642;2023-04-16T10:41:05;101889.47;;;13.07;24.83
48926;BME280;39838;59.938;30.642;2023-04-16T10:43:39;101884.38;;;13.18;24.80
48926;BME280;39838;59.938;30.642;2023-04-16T10:46:18;101881.88;;;13.27;24.53
48926;BME280;39838;59.938;30.642;2023-04-16T10:48:46;101875.88;;;13.34;24.61
48926;BME280;39838;59.938;30.642;2023-04-16T10:51:23;101883.69;;;13.34;24.66
48926;BME280;39838;59.938;30.642;2023-04-16T10:53:50;101871.66;;;13.47;24.53
48926;BME280;39838;59.938;30.642;2023-04-16T10:56:22;101873.59;;;13.66;24.05
48926;BME280;39838;59.938;30.642;2023-04-16T10:58:52;101850.19;;;13.77;24.53
48926;BME280;39838;59.938;30.642;2023-04-16T11:01:28;101872.19;;;14.06;24.51
48926;BME280;39838;59.938;30.642;2023-04-16T11:03:57;101864.44;;;14.18;23.87
48926;BME280;39838;59.938;30.642;2023-04-16T11:06:27;101871.44;;;14.26;24.14
48926;BME280;39838;59.938;30.642;2023-04-16T11:08:54;101876.69;;;14.29;24.22
48926;BME280;39838;59.938;30.642;2023-04-16T11:11:21;101870.63;;;14.30;23.83
48926;BME280;39838;59.938;30.642;2023-04-16T11:13:54;101842.66;;;14.16;23.27
48926;BME280;39838;59.938;30.642;2023-04-16T11:16:23;101869.63;;;14.15;23.49
48926;BME280;39838;59.938;30.642;2023-04-16T11:18:51;101857.31;;;13.96;23.52
48926;BME280;39838;59.938;30.642;2023-04-16T11:21:18;101865.00;;;13.81;23.74
48926;BME280;39838;59.938;30.642;2023-04-16T11:23:47;101858.84;;;13.73;24.09
48926;BME280;39838;59.938;30.642;2023-04-16T11:26:25;101858.78;;;13.63;24.02
48926;BME280;39838;59.938;30.642;2023-04-16T11:28:54;101853.50;;;13.57;23.97
48926;BME280;39838;59.938;30.642;2023-04-16T11:31:23;101860.34;;;13.46;23.51
48926;BME280;39838;59.938;30.642;2023-04-16T11:33:51;101861.19;;;13.44;23.75
48926;BME280;39838;59.938;30.642;2023-04-16T11:36:19;101861.22;;;13.45;23.65
48926;BME280;39838;59.938;30.642;2023-04-16T11:38:46;101861.38;;;13.62;24.00
48926;BME280;39838;59.938;30.642;2023-04-16T11:41:18;101865.91;;;13.83;23.74
48926;BME280;39838;59.938;30.642;2023-04-16T11:43:46;101861.66;;;13.97;23.56
48926;BME280;39838;59.938;30.642;2023-04-16T11:46:14;101859.22;;;14.21;23.12
48926;BME280;39838;59.938;30.642;2023-04-16T11:48:49;101860.25;;;14.43;23.04
48926;BME280;39838;59.938;30.642;2023-04-16T11:51:18;101860.34;;;14.62;22.46
48926;BME280;39838;59.938;30.642;2023-04-16T11:53:47;101851.66;;;14.69;22.55
48926;BME280;39838;59.938;30.642;2023-04-16T11:56:15;101851.72;;;14.78;22.36
48926;BME280;39838;59.938;30.642;2023-04-16T11:59:05;101850.88;;;14.90;22.39
48926;BME280;39838;59.938;30.642;2023-04-16T12:01:33;101842.16;;;14.86;22.98
48926;BME280;39838;59.938;30.642;2023-04-16T12:04:03;101830.66;;;14.51;22.47
48926;BME280;39838;59.938;30.642;2023-04-16T12:06:30;101836.66;;;14.37;22.91
48926;BME280;39838;59.938;30.642;2023-04-16T12:08:58;101848.78;;;14.28;23.06
48926;BME280;39838;59.938;30.642;2023-04-16T12:11:38;101846.13;;;14.17;22.84
48926;BME280;39838;59.938;30.642;2023-04-16T12:14:06;101842.56;;;14.07;23.37
48926;BME280;39838;59.938;30.642;2023-04-16T12:16:33;101852.25;;;14.22;23.32
48926;BME280;39838;59.938;30.642;2023-04-16T12:19:03;101847.06;;;14.27;23.16
48926;BME280;39838;59.938;30.642;2023-04-16T12:21:40;101852.28;;;14.28;22.63
48926;BME280;39838;59.938;30.642;2023-04-16T12:24:09;101847.94;;;14.29;23.41
48926;BME280;39838;59.938;30.642;2023-04-16T12:26:41;101845.25;;;14.19;22.81
48926;BME280;39838;59.938;30.642;2023-04-16T12:29:19;101833.94;;;14.22;22.62
48926;BME280;39838;59.938;30.642;2023-04-16T12:31:48;101831.44;;;14.37;23.01
48926;BME280;39838;59.938;30.642;2023-04-16T12:34:17;101837.66;;;14.50;22.59
48926;BME280;39838;59.938;30.642;2023-04-16T12:36:46;101835.00;;;14.47;22.87
48926;BME280;39838;59.938;30.642;2023-04-16T12:39:14;101825.31;;;14.34;22.99
48926;BME280;39838;59.938;30.642;2023-04-16T12:41:42;101822.66;;;14.29;22.97
48926;BME280;39838;59.938;30.642;2023-04-16T12:44:11;101797.38;;;14.24;22.66
48926;BME280;39838;59.938;30.642;2023-04-16T12:46:39;101823.56;;;14.33;22.47
48926;BME280;39838;59.938;30.642;2023-04-16T12:49:07;101822.78;;;14.46;23.22
48926;BME280;39838;59.938;30.642;2023-04-16T12:51:36;101817.66;;;14.64;22.70